createdAt,value
2017-01-15T00:00:46.433Z,0
2017-01-15T00:02:08.480Z,0
2017-01-15T00:03:30.992Z,0
2017-01-15T00:04:53.086Z,0
2017-01-15T00:06:15.543Z,0
2017-01-15T00:07:38.150Z,0
2017-01-15T00:09:00.229Z,0
2017-01-15T00:10:23.104Z,0
2017-01-15T00:11:45.172Z,0
2017-01-15T00:13:06.881Z,0
2017-01-15T00:14:29.383Z,0
2017-01-15T00:15:51.855Z,0
2017-01-15T00:17:14.304Z,0
2017-01-15T00:18:36.803Z,0
2017-01-15T00:19:59.261Z,0
2017-01-15T00:21:21.826Z,0
2017-01-15T00:22:43.927Z,0
2017-01-15T00:24:06.391Z,0
2017-01-15T00:25:28.842Z,0
2017-01-15T00:26:50.990Z,0
2017-01-15T00:28:13.450Z,0
2017-01-15T00:29:35.611Z,0
2017-01-15T00:30:57.300Z,0
2017-01-15T00:32:19.765Z,0
2017-01-15T00:33:41.415Z,0
2017-01-15T00:35:03.541Z,0
2017-01-15T00:36:25.628Z,0
2017-01-15T00:37:47.686Z,0
2017-01-15T00:39:10.315Z,0
2017-01-15T00:40:32.445Z,0
2017-01-15T00:41:54.491Z,0
2017-01-15T00:43:16.550Z,0
2017-01-15T00:44:38.994Z,0
2017-01-15T00:46:01.495Z,0
2017-01-15T00:47:23.172Z,0
2017-01-15T00:48:46.041Z,0
2017-01-15T00:50:07.286Z,0
2017-01-15T00:51:29.351Z,0
2017-01-15T00:52:51.437Z,0
2017-01-15T00:54:13.115Z,0
2017-01-15T00:55:35.939Z,0
2017-01-15T00:56:58.880Z,0
2017-01-15T00:58:21.322Z,0
2017-01-15T00:59:42.700Z,0
2017-01-15T01:01:04.748Z,0
2017-01-15T01:02:27.621Z,0
2017-01-15T01:03:50.168Z,0
2017-01-15T01:05:12.612Z,0
2017-01-15T01:06:35.487Z,0
2017-01-15T01:07:57.931Z,0
2017-01-15T01:09:19.569Z,0
2017-01-15T01:10:41.628Z,0
2017-01-15T01:12:03.689Z,0
2017-01-15T01:13:25.467Z,0
2017-01-15T01:14:47.981Z,0
2017-01-15T01:16:10.478Z,0
2017-01-15T01:17:32.124Z,0
2017-01-15T01:18:54.198Z,0
2017-01-15T01:20:16.743Z,0
2017-01-15T01:21:38.773Z,0
2017-01-15T01:23:00.829Z,0
2017-01-15T01:24:23.385Z,0
2017-01-15T01:25:45.179Z,0
2017-01-15T01:27:06.829Z,0
2017-01-15T01:28:29.747Z,0
2017-01-15T01:29:51.901Z,0
2017-01-15T01:31:13.650Z,0
2017-01-15T01:32:36.190Z,0
2017-01-15T01:33:58.650Z,0
2017-01-15T01:35:21.475Z,0
2017-01-15T01:36:44.327Z,0
2017-01-15T01:38:06.501Z,0
2017-01-15T01:39:28.179Z,0
2017-01-15T01:40:50.731Z,0
2017-01-15T01:42:12.055Z,0
2017-01-15T01:43:33.467Z,0
2017-01-15T01:44:56.403Z,0
2017-01-15T01:46:18.886Z,0
2017-01-15T01:47:40.537Z,0
2017-01-15T01:49:02.581Z,0
2017-01-15T01:50:24.634Z,0
2017-01-15T01:51:46.680Z,0
2017-01-15T01:53:09.120Z,0
2017-01-15T01:54:30.382Z,0
2017-01-15T01:55:53.235Z,0
2017-01-15T01:57:16.056Z,0
2017-01-15T01:58:38.495Z,0
2017-01-15T02:00:00.627Z,0
2017-01-15T02:01:22.748Z,0
2017-01-15T02:02:44.782Z,0
2017-01-15T02:04:06.836Z,0
2017-01-15T02:05:28.919Z,0
2017-01-15T02:06:51.462Z,0
2017-01-15T02:08:13.534Z,0
2017-01-15T02:09:36.065Z,0
2017-01-15T02:10:58.123Z,0
2017-01-15T02:12:20.623Z,0
2017-01-15T02:13:43.069Z,0
2017-01-15T02:15:05.589Z,0
2017-01-15T02:16:27.231Z,0
2017-01-15T02:17:49.679Z,0
2017-01-15T02:19:12.519Z,0
2017-01-15T02:20:34.190Z,0
2017-01-15T02:21:56.245Z,0
2017-01-15T02:23:17.507Z,0
2017-01-15T02:24:40.440Z,0
2017-01-15T02:26:02.155Z,0
2017-01-15T02:27:24.345Z,0
2017-01-15T02:28:46.927Z,0
2017-01-15T02:30:08.182Z,0
2017-01-15T02:31:30.234Z,0
2017-01-15T02:32:52.694Z,0
2017-01-15T02:34:15.147Z,0
2017-01-15T02:35:37.585Z,0
2017-01-15T02:36:59.785Z,0
2017-01-15T02:38:22.221Z,0
2017-01-15T02:39:44.262Z,0
2017-01-15T02:41:06.382Z,0
2017-01-15T02:42:28.839Z,0
2017-01-15T02:43:50.922Z,0
2017-01-15T02:45:12.584Z,0
2017-01-15T02:46:34.644Z,0
2017-01-15T02:47:55.500Z,0
2017-01-15T02:49:17.602Z,0
2017-01-15T02:50:40.044Z,0
2017-01-15T02:52:01.688Z,0
2017-01-15T02:53:23.340Z,0
2017-01-15T02:54:44.585Z,0
2017-01-15T02:56:05.828Z,0
2017-01-15T02:57:28.333Z,0
2017-01-15T02:58:50.430Z,0
2017-01-15T03:00:12.227Z,0
2017-01-15T03:01:34.683Z,0
2017-01-15T03:02:56.420Z,0
2017-01-15T03:04:18.972Z,0
2017-01-15T03:05:41.005Z,0
2017-01-15T03:07:03.132Z,0
2017-01-15T03:08:25.989Z,0
2017-01-15T03:09:47.643Z,0
2017-01-15T03:11:09.397Z,0
2017-01-15T03:12:31.517Z,0
2017-01-15T03:13:54.107Z,0
2017-01-15T03:15:16.575Z,0
2017-01-15T03:16:38.366Z,0
2017-01-15T03:18:00.419Z,0
2017-01-15T03:19:23.285Z,0
2017-01-15T03:20:45.743Z,0
2017-01-15T03:22:07.837Z,0
2017-01-15T03:23:30.047Z,0
2017-01-15T03:24:52.495Z,0
2017-01-15T03:26:14.545Z,0
2017-01-15T03:27:36.228Z,0
2017-01-15T03:28:58.681Z,0
2017-01-15T03:30:21.244Z,0
2017-01-15T03:31:42.486Z,0
2017-01-15T03:33:05.347Z,0
2017-01-15T03:34:27.456Z,0
2017-01-15T03:35:49.216Z,0
2017-01-15T03:37:10.926Z,0
2017-01-15T03:38:33.476Z,0
2017-01-15T03:39:55.934Z,0
2017-01-15T03:41:18.806Z,0
2017-01-15T03:42:41.265Z,0
2017-01-15T03:44:02.185Z,0
2017-01-15T03:45:25.017Z,0
2017-01-15T03:46:47.469Z,0
2017-01-15T03:48:09.598Z,0
2017-01-15T03:49:31.264Z,0
2017-01-15T03:50:52.894Z,0
2017-01-15T03:52:15.376Z,0
2017-01-15T03:53:37.422Z,0
2017-01-15T03:54:59.473Z,0
2017-01-15T03:56:21.524Z,0
2017-01-15T03:57:42.857Z,0
2017-01-15T03:59:04.883Z,0
2017-01-15T04:00:26.540Z,0
2017-01-15T04:01:47.808Z,0
2017-01-15T04:03:09.146Z,0
2017-01-15T04:04:31.398Z,0
2017-01-15T04:05:53.054Z,0
2017-01-15T04:07:15.131Z,0
2017-01-15T04:08:36.824Z,0
2017-01-15T04:09:58.876Z,0
2017-01-15T04:11:21.447Z,0
2017-01-15T04:12:43.088Z,0
2017-01-15T04:14:05.583Z,0
2017-01-15T04:15:27.391Z,0
2017-01-15T04:16:49.049Z,0
2017-01-15T04:18:11.155Z,0
2017-01-15T04:19:32.059Z,0
2017-01-15T04:20:54.180Z,0
2017-01-15T04:22:17.058Z,0
2017-01-15T04:23:39.577Z,0
2017-01-15T04:25:01.662Z,0
2017-01-15T04:26:24.246Z,0
2017-01-15T04:27:47.148Z,0
2017-01-15T04:29:09.201Z,0
2017-01-15T04:30:31.329Z,0
2017-01-15T04:31:53.420Z,0
2017-01-15T04:33:15.543Z,0
2017-01-15T04:34:38.062Z,0
2017-01-15T04:35:59.708Z,0
2017-01-15T04:37:21.774Z,0
2017-01-15T04:38:43.863Z,0
2017-01-15T04:40:06.070Z,0
2017-01-15T04:41:27.368Z,0
2017-01-15T04:42:49.469Z,0
2017-01-15T04:44:10.732Z,0
2017-01-15T04:45:33.176Z,0
2017-01-15T04:46:56.018Z,0
2017-01-15T04:48:17.796Z,0
2017-01-15T04:49:40.235Z,0
2017-01-15T04:51:02.684Z,0
2017-01-15T04:52:25.233Z,0
2017-01-15T04:53:46.890Z,0
2017-01-15T04:55:08.629Z,0
2017-01-15T04:56:31.465Z,0
2017-01-15T04:57:53.159Z,0
2017-01-15T04:59:15.605Z,0
2017-01-15T05:00:37.287Z,0
2017-01-15T05:01:59.431Z,0
2017-01-15T05:03:22.137Z,0
2017-01-15T05:04:44.596Z,0
2017-01-15T05:06:05.829Z,0
2017-01-15T05:07:27.927Z,0
2017-01-15T05:08:50.019Z,0
2017-01-15T05:10:12.091Z,0
2017-01-15T05:11:34.134Z,0
2017-01-15T05:12:55.810Z,0
2017-01-15T05:14:18.441Z,0
2017-01-15T05:15:40.066Z,0
2017-01-15T05:17:02.087Z,0
2017-01-15T05:18:24.121Z,0
2017-01-15T05:19:46.656Z,0
2017-01-15T05:21:08.330Z,0
2017-01-15T05:22:29.957Z,0
2017-01-15T05:23:52.403Z,0
2017-01-15T05:25:14.966Z,0
2017-01-15T05:26:37.130Z,0
2017-01-15T05:27:59.178Z,0
2017-01-15T05:29:21.630Z,0
2017-01-15T05:30:43.719Z,0
2017-01-15T05:32:05.814Z,0
2017-01-15T05:33:28.307Z,0
2017-01-15T05:34:49.575Z,0
2017-01-15T05:36:12.154Z,0
2017-01-15T05:37:34.641Z,0
2017-01-15T05:38:56.690Z,0
2017-01-15T05:40:18.733Z,0
2017-01-15T05:41:40.390Z,0
2017-01-15T05:43:02.899Z,0
2017-01-15T05:44:24.553Z,0
2017-01-15T05:45:45.832Z,0
2017-01-15T05:47:08.254Z,0
2017-01-15T05:48:30.299Z,0
2017-01-15T05:49:51.538Z,0
2017-01-15T05:51:13.192Z,0
2017-01-15T05:52:35.253Z,0
2017-01-15T05:53:56.938Z,0
2017-01-15T05:55:18.584Z,0
2017-01-15T05:56:41.480Z,0
2017-01-15T05:58:02.722Z,0
2017-01-15T05:59:24.968Z,0
2017-01-15T06:00:46.992Z,0
2017-01-15T06:02:09.547Z,0
2017-01-15T06:03:31.199Z,0
2017-01-15T06:04:53.319Z,0
2017-01-15T06:06:15.803Z,0
2017-01-15T06:07:37.503Z,0
2017-01-15T06:08:59.201Z,0
2017-01-15T06:10:21.806Z,0
2017-01-15T06:11:43.931Z,0
2017-01-15T06:13:05.981Z,0
2017-01-15T06:14:27.332Z,0
2017-01-15T06:15:49.462Z,0
2017-01-15T06:17:11.589Z,0
2017-01-15T06:18:33.683Z,0
2017-01-15T06:20:27.670Z,0
2017-01-15T06:21:50.131Z,0
2017-01-15T06:23:11.387Z,0
2017-01-15T06:24:33.562Z,0
2017-01-15T06:25:56.282Z,0
2017-01-15T06:27:18.315Z,0
2017-01-15T06:28:39.980Z,0
2017-01-15T06:30:01.230Z,0
2017-01-15T06:31:22.880Z,0
2017-01-15T06:32:44.938Z,0
2017-01-15T06:34:07.402Z,0
2017-01-15T06:35:28.641Z,0
2017-01-15T06:36:51.492Z,0
2017-01-15T06:38:13.935Z,0
2017-01-15T06:39:36.810Z,0
2017-01-15T06:40:58.842Z,0
2017-01-15T06:42:20.473Z,0
2017-01-15T06:43:42.921Z,0
2017-01-15T06:45:04.972Z,0
2017-01-15T06:46:27.008Z,0
2017-01-15T06:47:49.461Z,0
2017-01-15T06:49:11.942Z,4
2017-01-15T06:50:33.987Z,0
2017-01-15T06:51:56.451Z,4
2017-01-15T06:53:18.091Z,0
2017-01-15T06:54:40.147Z,4
2017-01-15T06:56:01.814Z,4
2017-01-15T06:57:23.865Z,4
2017-01-15T06:58:46.374Z,8
2017-01-15T07:00:08.408Z,12
2017-01-15T07:01:30.475Z,12
2017-01-15T07:02:52.924Z,12
2017-01-15T07:04:14.564Z,16
2017-01-15T07:05:36.007Z,20
2017-01-15T07:06:58.904Z,24
2017-01-15T07:08:20.949Z,32
2017-01-15T07:09:43.185Z,40
2017-01-15T07:11:05.254Z,44
2017-01-15T07:12:28.150Z,52
2017-01-15T07:13:50.220Z,64
2017-01-15T07:15:12.801Z,72
2017-01-15T07:16:35.634Z,84
2017-01-15T07:17:56.927Z,104
2017-01-15T07:19:18.981Z,116
2017-01-15T07:20:41.418Z,136
2017-01-15T07:22:04.413Z,156
2017-01-15T07:23:26.480Z,176
2017-01-15T07:24:48.911Z,204
2017-01-15T07:26:11.921Z,228
2017-01-15T07:27:34.794Z,260
2017-01-15T07:28:56.832Z,288
2017-01-15T07:30:18.480Z,320
2017-01-15T07:31:40.554Z,356
2017-01-15T07:33:02.630Z,392
2017-01-15T07:34:25.081Z,436
2017-01-15T07:35:47.204Z,480
2017-01-15T07:37:09.753Z,524
2017-01-15T07:38:31.929Z,572
2017-01-15T07:39:53.674Z,620
2017-01-15T07:41:16.527Z,668
2017-01-15T07:42:38.299Z,716
2017-01-15T07:44:00.353Z,768
2017-01-15T07:45:22.012Z,820
2017-01-15T07:46:44.497Z,872
2017-01-15T07:48:06.996Z,928
2017-01-15T07:49:29.504Z,980
2017-01-15T07:50:51.637Z,1036
2017-01-15T07:52:13.698Z,1092
2017-01-15T07:53:36.459Z,1144
2017-01-15T07:54:58.901Z,1196
2017-01-15T07:56:20.948Z,1248
2017-01-15T07:57:43.401Z,1300
2017-01-15T07:59:04.656Z,1356
2017-01-15T08:00:27.088Z,1408
2017-01-15T08:01:49.142Z,1460
2017-01-15T08:03:11.335Z,1516
2017-01-15T08:04:34.391Z,1568
2017-01-15T08:05:56.840Z,1648
2017-01-15T08:07:18.890Z,1704
2017-01-15T08:08:40.929Z,1776
2017-01-15T08:10:03.764Z,1860
2017-01-15T08:11:25.827Z,1956
2017-01-15T08:12:47.567Z,2056
2017-01-15T08:14:10.692Z,2144
2017-01-15T08:15:33.153Z,2184
2017-01-15T08:16:55.220Z,2276
2017-01-15T08:18:18.074Z,2304
2017-01-15T08:19:40.564Z,2352
2017-01-15T08:21:02.614Z,2424
2017-01-15T08:22:25.109Z,2476
2017-01-15T08:23:47.948Z,2500
2017-01-15T08:25:10.091Z,2504
2017-01-15T08:26:32.721Z,2536
2017-01-15T08:27:55.261Z,2568
2017-01-15T08:29:16.942Z,2564
2017-01-15T08:30:39.522Z,2604
2017-01-15T08:32:01.966Z,2668
2017-01-15T08:33:23.661Z,2748
2017-01-15T08:34:46.129Z,2844
2017-01-15T08:36:08.713Z,2916
2017-01-15T08:37:31.166Z,3020
2017-01-15T08:38:53.618Z,3112
2017-01-15T08:40:16.541Z,3232
2017-01-15T08:41:39.602Z,3320
2017-01-15T08:43:02.120Z,3580
2017-01-15T08:44:23.769Z,3484
2017-01-15T08:45:45.946Z,3520
2017-01-15T08:47:08.413Z,3668
2017-01-15T08:48:31.275Z,3764
2017-01-15T08:49:53.390Z,3720
2017-01-15T08:51:16.253Z,3704
2017-01-15T08:52:38.359Z,3756
2017-01-15T08:54:00.824Z,3796
2017-01-15T08:55:23.699Z,3808
2017-01-15T08:56:46.241Z,3848
2017-01-15T08:58:08.706Z,3772
2017-01-15T08:59:30.493Z,3780
2017-01-15T09:00:52.938Z,3684
2017-01-15T09:02:15.825Z,3596
2017-01-15T09:03:37.886Z,3532
2017-01-15T09:04:59.260Z,3396
2017-01-15T09:06:21.468Z,3304
2017-01-15T09:07:43.191Z,3188
2017-01-15T09:09:05.650Z,3204
2017-01-15T09:10:28.390Z,3260
2017-01-15T09:11:51.298Z,3376
2017-01-15T09:13:12.560Z,3576
2017-01-15T09:14:35.014Z,3828
2017-01-15T09:15:57.591Z,4088
2017-01-15T09:17:20.127Z,4376
2017-01-15T09:18:42.642Z,4680
2017-01-15T09:20:05.480Z,5056
2017-01-15T09:21:27.581Z,5160
2017-01-15T09:23:21.931Z,5504
2017-01-15T09:24:43.663Z,5416
2017-01-15T09:26:06.212Z,5412
2017-01-15T09:27:27.868Z,5220
2017-01-15T09:28:49.997Z,5424
2017-01-15T09:30:12.855Z,5044
2017-01-15T09:31:35.861Z,4944
2017-01-15T09:32:58.304Z,4880
2017-01-15T09:34:21.297Z,4924
2017-01-15T09:35:42.950Z,4764
2017-01-15T09:37:05.601Z,4628
2017-01-15T09:38:27.639Z,4696
2017-01-15T09:39:50.547Z,4780
2017-01-15T09:41:12.212Z,5028
2017-01-15T09:42:33.991Z,5132
2017-01-15T09:43:56.850Z,5296
2017-01-15T09:45:19.749Z,5440
2017-01-15T09:46:41.415Z,5252
2017-01-15T09:48:03.886Z,5184
2017-01-15T09:49:26.351Z,5128
2017-01-15T09:50:48.802Z,5052
2017-01-15T09:52:11.652Z,5040
2017-01-15T09:53:33.310Z,5184
2017-01-15T09:54:55.824Z,5444
2017-01-15T09:56:17.480Z,5612
2017-01-15T09:57:40.352Z,5648
2017-01-15T09:59:01.723Z,5512
2017-01-15T10:00:24.423Z,5440
2017-01-15T10:01:46.116Z,5412
2017-01-15T10:03:08.603Z,5536
2017-01-15T10:04:31.094Z,5464
2017-01-15T10:05:53.227Z,5612
2017-01-15T10:07:15.747Z,5992
2017-01-15T10:08:37.795Z,6052
2017-01-15T10:10:00.031Z,5840
2017-01-15T10:11:22.496Z,5360
2017-01-15T10:12:44.662Z,5068
2017-01-15T10:14:06.321Z,4660
2017-01-15T10:15:29.244Z,4540
2017-01-15T10:16:52.094Z,4584
2017-01-15T10:18:13.957Z,4608
2017-01-15T10:19:36.828Z,4592
2017-01-15T10:20:58.912Z,4640
2017-01-15T10:22:21.378Z,4272
2017-01-15T10:23:43.852Z,4292
2017-01-15T10:25:06.723Z,4276
2017-01-15T10:26:29.210Z,4308
2017-01-15T10:27:51.749Z,4348
2017-01-15T10:29:14.658Z,4448
2017-01-15T10:30:37.560Z,4660
2017-01-15T10:32:00.021Z,4700
2017-01-15T10:33:22.875Z,4928
2017-01-15T10:34:45.761Z,4992
2017-01-15T10:36:08.314Z,5072
2017-01-15T10:37:30.783Z,5164
2017-01-15T10:38:53.628Z,5032
2017-01-15T10:40:16.481Z,5068
2017-01-15T10:41:38.576Z,5176
2017-01-15T10:43:01.786Z,5436
2017-01-15T10:44:23.905Z,5748
2017-01-15T10:45:46.367Z,5824
2017-01-15T10:47:08.473Z,5920
2017-01-15T10:48:30.145Z,6232
2017-01-15T10:49:53.056Z,6572
2017-01-15T10:51:15.125Z,6444
2017-01-15T10:52:38.139Z,6132
2017-01-15T10:54:01.001Z,6296
2017-01-15T10:55:22.684Z,6868
2017-01-15T10:56:44.742Z,6980
2017-01-15T10:58:07.218Z,7148
2017-01-15T10:59:29.712Z,7144
2017-01-15T11:00:52.172Z,7224
2017-01-15T11:02:14.743Z,7256
2017-01-15T11:03:36.801Z,7212
2017-01-15T11:04:59.353Z,7168
2017-01-15T11:06:21.408Z,7308
2017-01-15T11:07:43.970Z,7316
2017-01-15T11:09:05.755Z,7308
2017-01-15T11:10:28.317Z,7212
2017-01-15T11:11:50.764Z,7180
2017-01-15T11:13:13.234Z,6952
2017-01-15T11:14:35.703Z,6840
2017-01-15T11:15:57.795Z,6696
2017-01-15T11:17:19.595Z,6636
2017-01-15T11:18:41.749Z,6624
2017-01-15T11:20:04.421Z,6636
2017-01-15T11:21:26.996Z,6504
2017-01-15T11:22:49.433Z,6420
2017-01-15T11:24:11.910Z,6316
2017-01-15T11:25:34.404Z,6148
2017-01-15T11:26:56.056Z,5980
2017-01-15T11:28:18.921Z,5860
2017-01-15T11:29:41.956Z,5752
2017-01-15T11:31:04.435Z,5656
2017-01-15T11:32:26.696Z,5516
2017-01-15T11:33:48.878Z,5480
2017-01-15T11:35:10.968Z,5428
2017-01-15T11:36:33.049Z,5412
2017-01-15T11:37:55.744Z,5460
2017-01-15T11:39:18.669Z,5384
2017-01-15T11:40:41.595Z,5160
2017-01-15T11:42:04.518Z,5136
2017-01-15T11:43:26.596Z,5220
2017-01-15T11:44:49.465Z,4784
2017-01-15T11:46:11.955Z,4580
2017-01-15T11:47:34.514Z,4416
2017-01-15T11:48:57.424Z,4312
2017-01-15T11:50:19.956Z,4348
2017-01-15T11:51:42.525Z,4136
2017-01-15T11:53:05.402Z,4024
2017-01-15T11:54:27.649Z,4148
2017-01-15T11:55:49.826Z,4064
2017-01-15T11:57:12.073Z,3948
2017-01-15T11:58:34.795Z,4140
2017-01-15T11:59:57.835Z,3992
2017-01-15T12:01:20.351Z,4144
2017-01-15T12:02:42.853Z,4076
2017-01-15T12:04:05.772Z,4192
2017-01-15T12:05:28.261Z,4284
2017-01-15T12:06:50.347Z,4388
2017-01-15T12:08:12.428Z,4324
2017-01-15T12:09:34.954Z,4364
2017-01-15T12:10:57.040Z,4380
2017-01-15T12:12:19.085Z,4364
2017-01-15T12:13:41.160Z,4360
2017-01-15T12:15:03.671Z,4348
2017-01-15T12:16:26.145Z,4336
2017-01-15T12:17:47.895Z,4328
2017-01-15T12:19:10.474Z,4320
2017-01-15T12:20:32.237Z,4312
2017-01-15T12:21:54.696Z,4308
2017-01-15T12:23:16.788Z,4300
2017-01-15T12:24:39.371Z,4288
2017-01-15T12:26:01.430Z,4276
2017-01-15T12:27:23.898Z,4268
2017-01-15T12:28:46.052Z,4260
2017-01-15T12:30:08.947Z,4244
2017-01-15T12:31:30.732Z,4232
2017-01-15T12:32:53.272Z,4228
2017-01-15T12:34:15.749Z,4216
2017-01-15T12:35:38.292Z,4208
2017-01-15T12:37:00.824Z,4200
2017-01-15T12:38:23.385Z,4188
2017-01-15T12:39:45.890Z,4180
2017-01-15T12:41:08.364Z,4168
2017-01-15T12:42:31.246Z,4160
2017-01-15T12:43:53.343Z,4144
2017-01-15T12:45:15.855Z,4132
2017-01-15T12:46:37.942Z,4116
2017-01-15T12:48:00.042Z,4104
2017-01-15T12:49:22.233Z,4088
2017-01-15T12:50:43.973Z,4072
2017-01-15T12:52:06.436Z,4068
2017-01-15T12:53:29.299Z,4052
2017-01-15T12:55:23.664Z,4040
2017-01-15T12:56:45.763Z,4028
2017-01-15T12:58:08.290Z,4016
2017-01-15T12:59:31.182Z,4004
2017-01-15T13:00:52.942Z,3992
2017-01-15T13:02:15.425Z,3980
2017-01-15T13:03:37.093Z,3968
2017-01-15T13:04:59.196Z,3960
2017-01-15T13:06:21.660Z,3944
2017-01-15T13:07:44.131Z,3928
2017-01-15T13:09:06.671Z,3916
2017-01-15T13:10:29.674Z,3900
2017-01-15T13:11:52.219Z,3884
2017-01-15T13:13:14.412Z,3872
2017-01-15T13:14:37.351Z,3856
2017-01-15T13:15:59.831Z,3844
2017-01-15T13:17:22.069Z,3828
2017-01-15T13:18:44.578Z,3812
2017-01-15T13:20:06.253Z,3800
2017-01-15T13:21:29.261Z,3784
2017-01-15T13:22:51.781Z,3768
2017-01-15T13:24:14.261Z,3752
2017-01-15T13:25:35.948Z,3736
2017-01-15T13:26:58.501Z,3724
2017-01-15T13:28:20.332Z,3708
2017-01-15T13:29:42.820Z,3692
2017-01-15T13:31:05.297Z,3676
2017-01-15T13:32:27.387Z,3656
2017-01-15T13:33:49.924Z,3640
2017-01-15T13:35:12.874Z,3624
2017-01-15T13:36:35.962Z,3608
2017-01-15T13:37:57.242Z,3588
2017-01-15T13:39:18.898Z,3572
2017-01-15T13:40:41.784Z,3552
2017-01-15T13:42:04.305Z,3532
2017-01-15T13:43:27.292Z,3516
2017-01-15T13:44:49.363Z,3496
2017-01-15T13:46:11.077Z,3472
2017-01-15T13:47:33.274Z,3456
2017-01-15T13:48:55.789Z,3436
2017-01-15T13:50:17.888Z,3416
2017-01-15T13:51:40.047Z,3392
2017-01-15T13:53:02.536Z,3376
2017-01-15T13:54:24.608Z,3356
2017-01-15T13:55:47.491Z,3332
2017-01-15T13:57:10.588Z,3308
2017-01-15T13:58:33.487Z,3292
2017-01-15T13:59:56.131Z,3272
2017-01-15T14:01:18.228Z,3248
2017-01-15T14:02:40.514Z,3224
2017-01-15T14:04:02.235Z,3204
2017-01-15T14:05:24.383Z,3180
2017-01-15T14:06:46.927Z,3156
2017-01-15T14:08:09.451Z,3136
2017-01-15T14:09:32.516Z,3108
2017-01-15T14:10:54.299Z,3084
2017-01-15T14:12:17.209Z,3060
2017-01-15T14:13:39.417Z,3032
2017-01-15T14:15:01.639Z,3004
2017-01-15T14:16:24.156Z,2976
2017-01-15T14:17:47.077Z,2948
2017-01-15T14:19:09.967Z,2924
2017-01-15T14:20:32.152Z,2892
2017-01-15T14:21:54.260Z,2860
2017-01-15T14:23:16.836Z,2832
2017-01-15T14:24:39.510Z,2796
2017-01-15T14:26:02.473Z,2768
2017-01-15T14:27:25.129Z,2736
2017-01-15T14:28:47.631Z,2704
2017-01-15T14:30:10.726Z,2672
2017-01-15T14:31:32.853Z,2636
2017-01-15T14:32:55.530Z,2604
2017-01-15T14:34:18.540Z,2568
2017-01-15T14:35:41.473Z,2528
2017-01-15T14:37:04.070Z,2492
2017-01-15T14:38:26.987Z,2456
2017-01-15T14:39:49.140Z,2420
2017-01-15T14:41:11.453Z,2376
2017-01-15T14:42:34.395Z,2336
2017-01-15T14:43:56.934Z,2296
2017-01-15T14:45:19.882Z,2256
2017-01-15T14:46:42.828Z,2216
2017-01-15T14:48:04.135Z,2168
2017-01-15T14:49:27.085Z,2124
2017-01-15T14:50:50.011Z,2076
2017-01-15T14:52:12.537Z,2032
2017-01-15T14:53:35.606Z,1984
2017-01-15T14:54:58.545Z,1936
2017-01-15T14:56:21.054Z,1884
2017-01-15T14:57:43.631Z,1836
2017-01-15T14:59:06.729Z,1788
2017-01-15T15:00:29.666Z,1736
2017-01-15T15:01:52.189Z,1680
2017-01-15T15:03:14.724Z,1620
2017-01-15T15:04:37.224Z,1564
2017-01-15T15:05:59.787Z,1508
2017-01-15T15:07:22.419Z,1448
2017-01-15T15:08:45.331Z,1384
2017-01-15T15:10:08.377Z,1324
2017-01-15T15:11:30.511Z,1268
2017-01-15T15:12:53.442Z,1204
2017-01-15T15:14:15.560Z,1144
2017-01-15T15:15:37.686Z,1088
2017-01-15T15:16:59.808Z,1028
2017-01-15T15:18:21.967Z,968
2017-01-15T15:19:44.494Z,916
2017-01-15T15:21:06.997Z,864
2017-01-15T15:22:29.467Z,812
2017-01-15T15:23:51.631Z,756
2017-01-15T15:25:14.118Z,712
2017-01-15T15:26:36.289Z,664
2017-01-15T15:27:58.517Z,616
2017-01-15T15:29:20.995Z,572
2017-01-15T15:30:43.480Z,528
2017-01-15T15:32:05.994Z,480
2017-01-15T15:33:28.466Z,440
2017-01-15T15:34:50.969Z,400
2017-01-15T15:36:13.863Z,360
2017-01-15T15:37:35.555Z,328
2017-01-15T15:38:56.844Z,292
2017-01-15T15:40:18.938Z,264
2017-01-15T15:41:41.846Z,232
2017-01-15T15:43:03.996Z,204
2017-01-15T15:44:26.196Z,180
2017-01-15T15:45:48.797Z,156
2017-01-15T15:47:11.897Z,132
2017-01-15T15:48:34.790Z,116
2017-01-15T15:49:57.272Z,100
2017-01-15T15:51:19.786Z,84
2017-01-15T15:52:42.324Z,72
2017-01-15T15:54:05.311Z,60
2017-01-15T15:55:27.942Z,48
2017-01-15T15:56:50.523Z,40
2017-01-15T15:58:13.025Z,36
2017-01-15T15:59:36.168Z,28
2017-01-15T16:00:58.650Z,24
2017-01-15T16:02:21.619Z,20
2017-01-15T16:03:44.701Z,16
2017-01-15T16:05:07.175Z,12
2017-01-15T16:06:29.390Z,8
2017-01-15T16:07:52.297Z,8
2017-01-15T16:09:14.459Z,4
2017-01-15T16:10:36.974Z,4
2017-01-15T16:11:59.519Z,4
2017-01-15T16:13:22.026Z,4
2017-01-15T16:14:44.566Z,0
2017-01-15T16:16:07.099Z,4
2017-01-15T16:17:29.677Z,0
2017-01-15T16:18:52.176Z,0
2017-01-15T16:20:15.091Z,0
2017-01-15T16:21:37.196Z,0
2017-01-15T16:22:59.296Z,0
2017-01-15T16:24:22.227Z,0
2017-01-15T16:25:44.345Z,0
2017-01-15T16:27:07.326Z,0
2017-01-15T16:28:29.881Z,0
2017-01-15T16:29:53.026Z,0
2017-01-15T16:31:15.207Z,0
2017-01-15T16:32:37.726Z,0
2017-01-15T16:34:00.389Z,0
2017-01-15T16:35:22.928Z,0
2017-01-15T16:36:45.057Z,0
2017-01-15T16:38:08.057Z,0
2017-01-15T16:39:30.615Z,0
2017-01-15T16:40:53.627Z,0
2017-01-15T16:42:16.157Z,0
2017-01-15T16:43:38.798Z,0
2017-01-15T16:45:01.725Z,0
2017-01-15T16:46:24.901Z,0
2017-01-15T16:47:47.120Z,0
2017-01-15T16:49:10.077Z,0
2017-01-15T16:50:33.038Z,0
2017-01-15T16:51:56.517Z,0
2017-01-15T16:53:19.466Z,0
2017-01-15T16:54:41.613Z,0
2017-01-15T16:56:04.147Z,0
2017-01-15T16:57:27.164Z,0
2017-01-15T16:58:48.909Z,0
2017-01-15T17:00:11.455Z,0
2017-01-15T17:01:34.124Z,0
2017-01-15T17:02:56.660Z,0
2017-01-15T17:04:19.217Z,0
2017-01-15T17:05:42.248Z,0
2017-01-15T17:07:05.388Z,0
2017-01-15T17:08:28.355Z,0
2017-01-15T17:09:51.280Z,0
2017-01-15T17:11:14.217Z,0
2017-01-15T17:12:37.179Z,0
2017-01-15T17:13:59.738Z,0
2017-01-15T17:15:22.716Z,12
2017-01-15T17:16:44.878Z,8
2017-01-15T17:18:06.629Z,8
2017-01-15T17:19:29.647Z,8
2017-01-15T17:20:52.615Z,0
2017-01-15T17:22:15.690Z,0
2017-01-15T17:23:38.229Z,0
2017-01-15T17:25:01.542Z,0
2017-01-15T17:26:24.667Z,0
2017-01-15T17:27:47.713Z,0
2017-01-15T17:29:10.287Z,0
2017-01-15T17:30:32.753Z,0
2017-01-15T17:31:55.401Z,0
2017-01-15T17:33:17.197Z,0
2017-01-15T17:34:39.960Z,0
2017-01-15T17:36:02.600Z,0
2017-01-15T17:37:24.772Z,0
2017-01-15T17:38:47.731Z,0
2017-01-15T17:40:42.881Z,0
2017-01-15T17:42:05.517Z,0
2017-01-15T17:43:28.481Z,0
2017-01-15T17:44:51.485Z,0
2017-01-15T17:46:55.923Z,0
2017-01-15T17:48:18.119Z,0
2017-01-15T17:49:40.765Z,0
2017-01-15T17:51:03.540Z,0
2017-01-15T17:52:27.175Z,0
2017-01-15T17:53:49.330Z,0
2017-01-15T17:55:11.894Z,0
2017-01-15T17:56:34.893Z,0
2017-01-15T17:57:57.964Z,0
2017-01-15T17:59:20.641Z,0
2017-01-15T18:00:42.781Z,0
2017-01-15T18:02:04.951Z,0
2017-01-15T18:03:27.932Z,0
2017-01-15T18:04:50.547Z,0
2017-01-15T18:06:13.562Z,0
2017-01-15T18:07:36.141Z,0
2017-01-15T18:08:58.711Z,0
2017-01-15T18:10:20.844Z,0
2017-01-15T18:11:43.481Z,0
2017-01-15T18:13:06.052Z,0
2017-01-15T18:14:29.107Z,0
2017-01-15T18:15:51.721Z,0
2017-01-15T18:17:14.294Z,0
2017-01-15T18:18:36.831Z,0
2017-01-15T18:19:59.773Z,0
2017-01-15T18:21:22.112Z,0
2017-01-15T18:22:45.054Z,0
2017-01-15T18:24:39.936Z,0
2017-01-15T18:26:03.057Z,0
2017-01-15T18:27:26.010Z,0
2017-01-15T18:28:48.813Z,0
2017-01-15T18:30:10.958Z,0
2017-01-15T18:31:33.891Z,0
2017-01-15T18:32:56.031Z,0
2017-01-15T18:34:17.879Z,0
2017-01-15T18:35:40.410Z,0
2017-01-15T18:37:03.028Z,0
2017-01-15T18:38:25.152Z,0
2017-01-15T18:39:47.744Z,0
2017-01-15T18:41:10.307Z,0
2017-01-15T18:42:33.366Z,0
2017-01-15T18:43:56.320Z,0
2017-01-15T18:45:19.313Z,0
2017-01-15T18:46:41.498Z,0
2017-01-15T18:48:04.492Z,0
2017-01-15T18:49:27.514Z,0
2017-01-15T18:50:50.096Z,0
2017-01-15T18:52:12.637Z,0
2017-01-15T18:53:35.832Z,0
2017-01-15T18:54:58.369Z,0
2017-01-15T18:56:20.086Z,0
2017-01-15T18:57:42.693Z,0
2017-01-15T18:59:05.679Z,0
2017-01-15T19:00:28.677Z,0
2017-01-15T19:01:51.230Z,0
2017-01-15T19:03:14.220Z,0
2017-01-15T19:04:36.890Z,0
2017-01-15T19:05:59.046Z,0
2017-01-15T19:07:21.589Z,0
2017-01-15T19:08:44.551Z,0
2017-01-15T19:10:07.576Z,0
2017-01-15T19:11:30.557Z,0
2017-01-15T19:12:53.140Z,0
2017-01-15T19:14:15.695Z,0
2017-01-15T19:15:38.341Z,0
2017-01-15T19:17:01.332Z,0
2017-01-15T19:18:24.271Z,0
2017-01-15T19:19:47.489Z,0
2017-01-15T19:21:10.473Z,0
2017-01-15T19:22:33.076Z,0
2017-01-15T19:23:56.042Z,0
2017-01-15T19:25:18.603Z,0